Terminal Aerodrome Forecast
Issued by NWS Knoxville/Tri Cities, TN

Home | Current Version | Previous Version | Text Only | Print | Product List | Glossary On
Versions: 1 2 3 4 5 6 7 8 9 10 11 12 13 14 15 16 17 18 19 20 21 22 23 24 25 26
000
FTUS44 KMRX 010806 AAA
TAFTRI
TAF AMD
KTRI 010806Z 0108/0206 00000KT P6SM BKN080
      TEMPO 0108/0112 4SM BR
     FM011600 25008KT P6SM SCT040
     FM020000 00000KT P6SM SCT250=

USA.gov is the U.S. government's official web portal to all federal, state and local government web resources and services.